Left Banner
 
 

2017 Leader of the Pack 5K

Age Group Results

May 20, 2017


Timing & Event Services by Event Mercenaries, Inc.


Men: Top Finishers 0- 0 5- 6 7- 8 9-10 11-12 13-14 15-19 25-29 30-34 35-39 40-44 45-49 50-54 55-59 60-64 65-69 70-74 75-99
Women: Top Finishers 0- 0 5- 6 7- 8 9-10 11-12 13-14 15-19 20-24 25-29 30-34 35-39 40-44 45-49 50-54 55-59 60-64

5K

Top

Female Open Winners

Place Name City Bib No Age Overall Total Time Pace
1 Amy Edelstein Shelby NC 101 39 11 21:39.9 6:59/M
2 Lauren Revis Rutherfordton NC 295 18 13 22:24.0 7:14/M
3 Melanie Butler Forest City NC 50 43 15 22:55.7 7:24/M
Top

Male Open Winners

Place Name City Bib No Age Overall Total Time Pace
1 Gunner Hogston 581 14 1 18:14.3 5:53/M
2 Jonathan Thacker Bakersville NC 350 39 2 18:37.6 6:00/M
3 Isaiah Washington Rutherfordton NC 377 17 3 18:49.2 6:04/M
Top

Female Master Winners

Place Name City Bib No Age Overall Total Time Pace
1 Amy Smith Forest City NC 326 48 38 26:17.1 8:29/M
2 Misha Dotson Rutherfordton NC 545 44 54 28:13.7 9:06/M
Top

Male Master Winners

Place Name City Bib No Age Overall Total Time Pace
1 Morgan Miskell Shelby NC 240 48 14 22:34.6 7:17/M
2 Timothy Lovelace Mooresboro NC 213 52 19 23:29.9 7:35/M
Top

Female No Age Provided

Place Name City Bib No Age Overall Total Time Pace
1 Suzanne Hutchins 189 197 40:24.0 13:02/M
2 Sidney Wood 387 344 53:59.2 17:25/M
3 Macie Hoyle Forest City NC 577 0 398 1:00:48.2 19:37/M
Top

Male No Age Provided

Place Name City Bib No Age Overall Total Time Pace
1 Jude Fountain Rutherfordton NC 557 0 99 32:23.3 10:27/M
Top

Female 5 to 6

Place Name City Bib No Age Overall Total Time Pace
1 Lucy Sherburne Forest City NC 312 6 62 29:03.5 9:22/M
2 Q'Kioja Lathan 204 6 296 48:49.0 15:45/M
Top

Male 5 to 6

Place Name City Bib No Age Overall Total Time Pace
1 Ty Hutchins Rutherfordton NC 190 6 206 41:09.1 13:16/M
2 Le Land De Maso Forest City NC 570 6 240 43:50.6 14:08/M
Top

Female 7 to 8

Place Name City Bib No Age Overall Total Time Pace
1 Olive Gosnell Rutherfordton NC 132 8 106 33:05.9 10:40/M
2 Carrigan Epley Rutherfordton NC 112 8 131 34:59.0 11:17/M
3 Maleah Radford Forest City NC 293 8 171 38:14.7 12:20/M
4 Savannah Hill Forest City NC 174 8 244 44:04.8 14:13/M
5 Erika Phillips Forest City NC 274 8 250 44:10.5 14:15/M
6 Alexa Arredondo Forest City NC 5 7 278 47:37.3 15:22/M
7 Hailey Davis Rutherfordton NC 85 7 286 48:08.7 15:32/M
8 Jenna Bennett 23 8 326 52:36.1 16:58/M
9 Joanna Tidball Rutherfordton NC 357 8 328 52:52.7 17:03/M
10 Abigail Thompson Forest City NC 354 8 386 59:07.9 19:04/M
11 Alaiah Mosley Forest City NC 253 7 387 59:10.6 19:05/M
12 Ashley Hodges Forest City NC 178 8 391 1:00:01.0 19:22/M
13 Lily Gait Rutherfordton NC 124 7 395 1:00:40.6 19:34/M
14 Gracie Crain Rutherfordton NC 75 8 411 1:02:52.4 20:17/M
15 Kaylee Beam Forest City NC 17 8 413 1:03:22.1 20:26/M
16 Matti Bostic Rutherfordton NC 27 8 416 1:04:06.5 20:41/M
17 Meg Prevatte Rutherfordton NC 287 8 421 1:08:04.7 21:57/M
Top

Male 7 to 8

Place Name City Bib No Age Overall Total Time Pace
1 Malikhi Lowery Forest City NC 217 8 79 30:35.2 9:52/M
2 Braden O'Connell Forest City NC 260 8 128 34:28.0 11:07/M
3 Ashawn Camp 54 8 137 36:00.5 11:37/M
4 Trajan Littlejohn Forest City NC 209 8 142 36:08.6 11:39/M
5 Daylan Littlejohn Forest City NC 208 7 149 36:28.3 11:46/M
6 Conrad Sherburne Forest City NC 311 8 151 36:30.7 11:46/M
7 Lukas Thompson Forest City NC 356 8 160 37:37.8 12:08/M
8 Landon Gooch Forest City NC 129 8 162 37:37.9 12:08/M
9 Chase Dotson Forest City NC 95 8 176 38:37.4 12:27/M
10 Dylan Smith Forest City NC 330 8 193 40:14.7 12:59/M
11 Ishmael Panigua Forest City NC 268 8 194 40:14.8 12:59/M
12 Dawson Loving Forest City NC 215 8 202 40:48.8 13:10/M
13 Cj Smith Forest City NC 328 8 211 41:44.0 13:28/M
14 Kevin Carpio Forest City NC 63 8 262 45:48.4 14:46/M
15 Joshua Fillers Rutherfordton NC 582 8 275 47:09.6 15:13/M
16 Eli Warren Forest City NC 376 8 287 48:16.8 15:34/M
17 Deacon Melton 519 8 310 50:14.0 16:12/M
18 Jeffrey Phillips Forest City NC 276 8 325 52:23.1 16:54/M
19 Eugene Wilkins Forest City NC 382 8 341 53:54.0 17:23/M
20 Maleik Hickman 167 8 352 54:36.6 17:37/M
21 Jose Ponce Forest City NC 284 7 361 56:08.2 18:06/M
22 Jaylen Hagen Forest City NC 148 8 384 59:06.0 19:04/M
23 Christopher Morrow Forest City NC 251 8 394 1:00:37.5 19:33/M
24 Jalyan Johnson Rutherfordton NC 195 8 420 1:07:53.9 21:54/M
25 Hill Carter Rutherfordton NC 65 8 424 1:08:19.1 22:02/M
Top

Female 9 to 10

Place Name City Bib No Age Overall Total Time Pace
1 Mollie Burgess Ellenboro NC 46 9 58 28:41.1 9:15/M
2 Cadence Epley Rutherfordton NC 111 10 78 30:32.8 9:51/M
3 Savannah Hail 521 10 85 31:00.9 10:00/M
4 Kaylin Hooper Forest City NC 567 10 91 31:42.3 10:14/M
5 Ayla Smith Forest City NC 327 10 155 37:11.1 12:00/M
6 Keira MacOpson Forest City NC 220 9 169 38:10.2 12:19/M
7 Makalyn Silvers 529 9 174 38:35.9 12:27/M
8 Carliegh Williams Forest City NC 384 9 187 39:42.2 12:48/M
9 Victoria Velasquez Forest City NC 369 9 205 40:52.4 13:11/M
10 Mylee Fincher Forest City NC 116 9 218 42:21.2 13:40/M
11 Kaylan Lynch Forest City NC 219 10 224 42:38.1 13:45/M
12 Calie Holland Forest City NC 179 10 232 43:25.0 14:00/M
13 Emily Hill Forest City NC 172 10 233 43:26.1 14:01/M
14 Brittney Hall Forest City NC 149 10 268 46:56.7 15:08/M
15 Kadyn Spears Forest City NC 334 10 285 48:03.9 15:30/M
16 Joseline Panigua Forest City NC 269 10 290 48:38.6 15:41/M
17 Raquel Hislop Rutherfordton NC 177 10 292 48:41.6 15:42/M
18 Valeria Santiago Forest City NC 307 10 297 49:00.0 15:48/M
19 Hanna Smith Rutherfordton NC 331 10 298 49:06.3 15:50/M
20 Faith Porter Forest City NC 285 10 306 49:39.2 16:01/M
21 Dakota Eddins Forest City NC 100 10 313 50:57.2 16:26/M
22 Gracie Emery Forest City NC 106 9 315 51:04.9 16:28/M
23 Jocelynn Moody Forest City NC 242 9 332 53:18.3 17:12/M
24 Layla Campbell Ellenboro NC 56 10 333 53:19.0 17:12/M
25 Gabby Ponce Forest City NC 283 9 343 53:57.3 17:24/M
26 Chrissy Connell Ellenboro NC 74 10 346 54:01.4 17:25/M
27 Trinity Parker Forest City NC 272 9 350 54:14.1 17:30/M
28 Emma Millard Rutherfordton NC 235 9 354 55:13.2 17:49/M
29 Brianna Marks Forest City NC 221 10 356 55:34.5 17:55/M
30 Nevianna Mullinax Forest City NC 257 9 375 57:21.7 18:30/M
31 Arianna Stywall Forest City NC 340 9 388 59:26.4 19:10/M
32 Kailyn Skinner Forest City NC 323 9 389 59:56.9 19:20/M
33 Makiyah Carter Forest City NC 67 10 392 1:00:04.0 19:23/M
34 Ava McDonald Forest City NC 225 10 393 1:00:04.8 19:23/M
35 Addison Hampton Forest City NC 151 10 403 1:01:17.2 19:46/M
36 Jaiya Mills Forest City NC 239 10 404 1:01:20.8 19:47/M
37 Camelia Lozano Forest City NC 218 9 405 1:01:29.0 19:50/M
38 Brooklyn Anderson Forest City NC 3 10 410 1:02:21.8 20:07/M
39 Jaden Camp Forest City NC 55 9 415 1:04:04.5 20:40/M
40 Addison Hill Rutherfordton NC 168 10 422 1:08:13.5 22:00/M
Top

Male 9 to 10

Place Name City Bib No Age Overall Total Time Pace
1 Landon Smith Granite Falls NC 332 10 24 24:25.1 7:53/M
2 Jacob Hendricks Ellenboro NC 163 9 25 24:26.1 7:53/M
3 Chance Baker Hickory NC 15 10 33 25:42.8 8:17/M
4 Dawson Hardin Ellenboro NC 155 10 40 26:45.2 8:38/M
5 Zander McKinney Forest City NC 234 10 47 27:54.4 9:00/M
6 Riley Coldren Forest City NC 539 10 55 28:23.6 9:09/M
7 Jacob Holland Forest City NC 180 10 56 28:32.0 9:12/M
8 Michael Elliott Forest City NC 103 9 82 30:51.3 9:57/M
9 Ayson Boyce Ellenboro NC 29 9 83 30:52.7 9:57/M
10 Beckett Webber Rutherfordton NC 379 10 92 31:44.5 10:14/M
11 Sam Gosnell Rutherfordton NC 133 10 98 32:22.9 10:26/M
12 Philip Teague Rutherfordton NC 348 9 104 33:01.2 10:39/M
13 Johnathon Bach Ellenboro NC 12 10 114 33:42.9 10:52/M
14 Brook Jarrell Forest City NC 192 10 124 34:24.6 11:06/M
15 Lejen Mosley Forest City NC 256 9 125 34:24.7 11:06/M
16 Logan Roberson Forest City NC 301 10 126 34:25.1 11:06/M
17 Felix Thompson Rutherfordton NC 355 10 134 35:37.9 11:29/M
18 Cameron Crawford Rutherfordton NC 78 10 135 35:41.9 11:31/M
19 Dash Cureton Forest City NC 81 9 143 36:08.6 11:39/M
20 Lillie Mei Wilkerson Bostic NC 553 10 146 36:16.3 11:42/M
21 Jackson Gray Forest City NC 134 9 161 37:37.8 12:08/M
22 Kody Dalton Forest City NC 84 9 163 37:38.1 12:08/M
23 Adrian Fox Forest City NC 119 10 164 37:48.8 12:12/M
24 Chance Toney Rutherfordton NC 360 9 166 38:03.1 12:16/M
25 Gavin Palmer Ellenboro NC 266 9 212 41:44.3 13:28/M
26 Ian Queen Ellenboro NC 291 9 215 41:56.2 13:32/M
27 Landon Fulbright Forest City NC 123 10 219 42:22.0 13:40/M
28 Marshall Parker Rutherfordton NC 271 10 222 42:28.3 13:42/M
29 Zeke McGinnis Forest City NC 232 9 223 42:34.8 13:44/M
30 Riley Demaso Forest City NC 91 10 226 42:40.9 13:46/M
31 Jacob Hudgins Rutherfordton NC 185 9 229 43:09.5 13:55/M
32 Ethan Houser Forest City NC 183 9 241 43:55.6 14:10/M
33 Neal Hines Forest City NC 176 10 263 46:08.8 14:53/M
34 Ben Carpenter Rutherfordton NC 57 9 273 46:59.3 15:09/M
35 Erick Onesto Forest City NC 262 9 276 47:11.4 15:13/M
36 Jeremiah Harbison Forest City NC 153 9 280 47:40.1 15:23/M
37 Jaden Varela Forest City NC 366 9 281 47:43.6 15:24/M
38 Ethan Lammonds Forest City NC 203 10 289 48:36.1 15:41/M
39 Landon Hannon Boiling Springs NC 152 10 301 49:19.9 15:55/M
40 Dylan Thomas Ellenboro NC 353 10 303 49:22.2 15:55/M
41 Sebastian Arrowood Forest City NC 8 9 317 51:21.3 16:34/M
42 Carlos Zirando Forest City NC 392 9 321 51:40.0 16:40/M
43 Donald Anderson Forest City NC 4 9 329 52:54.6 17:04/M
44 Jackson Byers Forest City NC 52 10 367 56:27.7 18:13/M
45 Shane Phillips Forest City NC 277 10 369 56:35.9 18:15/M
46 Kamdyn Robinson Forest City NC 303 10 381 58:25.4 18:51/M
47 Jerrell Mosley Forest City NC 255 10 382 58:26.6 18:51/M
48 Yates McGinnis Forest City NC 231 10 400 1:01:06.5 19:43/M
49 Jack McBrayer Forest City NC 395 10 408 1:02:06.0 20:02/M
50 Cameron Watt 14 10 419 1:07:51.3 21:53/M
51 Nico Guariello Rutherfordton NC 144 9 423 1:08:16.0 22:01/M
Top

Female 11 to 12

Place Name City Bib No Age Overall Total Time Pace
1 Roselyn Enriquez Forest City NC 109 11 51 28:07.4 9:04/M
2 Madison Guffey Rutherfordton NC 147 12 86 31:02.4 10:01/M
3 Joselin Varela Forest City NC 367 11 94 31:55.5 10:18/M
4 Madison Bradley Forest City NC 33 12 100 32:25.4 10:27/M
5 Madyson Roland Forest City NC 304 11 103 32:52.2 10:36/M
6 Jenna Roberson Forest City NC 300 11 109 33:17.3 10:44/M
7 Antonia Briscoe Ellenboro NC 534 11 113 33:37.8 10:51/M
8 Alayah Moore Bostic NC 243 11 115 33:44.5 10:53/M
9 Mary Grace Tisdale Union Mills NC 358 11 116 33:44.9 10:53/M
10 Lydia Beheler 20 11 123 34:21.8 11:05/M
11 Jada Whitesides 381 11 138 36:01.2 11:37/M
12 Zaira Escalera Rutherfordton NC 510 11 147 36:16.7 11:42/M
13 Christine Bach Ellenboro NC 513 12 210 41:34.1 13:25/M
14 Abril Delacruz Forest City NC 90 12 225 42:38.4 13:45/M
15 Olivia Brown Rutherfordton NC 42 12 234 43:27.1 14:01/M
16 Jia Wilkerson Bostic NC 555 11 239 43:50.0 14:08/M
17 Mckenzie Verepie Rutherfordton NC 372 11 255 44:52.9 14:28/M
18 Payton Owens Forest City NC 574 12 266 46:30.2 15:00/M
19 Brittany Piercy Forest City NC 279 11 269 46:57.0 15:09/M
20 Sarah Duncan Forest City NC 98 12 271 46:58.6 15:09/M
21 Lilly Greene Union Mills NC 139 11 279 47:40.1 15:23/M
22 Mackenzie Hughes Rutherfordton NC 187 11 288 48:22.6 15:36/M
23 Madalyn Hughes Rutherfordton NC 188 11 293 48:43.2 15:43/M
24 Isabella Lopez Herrera Forest City NC 573 11 299 49:07.6 15:51/M
25 Azlyn Silvers 528 11 331 53:17.5 17:11/M
26 Addison Arrowood Forest City NC 7 11 336 53:36.8 17:17/M
27 Savannah Hill Breeden Forest City NC 35 11 337 53:37.3 17:18/M
28 Heaven Logan Forest City NC 210 12 338 53:40.8 17:19/M
29 Kayla Moore Bostic NC 245 12 359 55:37.7 17:56/M
30 Emma McEntire Rutherfordton NC 227 11 371 56:49.3 18:20/M
31 Summer Smith Forest City 530 11 373 56:51.7 18:20/M
32 Destinee Hines Forest City NC 175 12 374 57:21.6 18:30/M
33 Peyton Hoyle Rutherfordton NC 511 12 401 1:01:10.6 19:44/M
34 Layla Carpenter Rutherfordton NC 60 11 402 1:01:10.9 19:44/M
35 Nina Lopez Forest City NC 211 12 409 1:02:12.8 20:04/M
Top

Male 11 to 12

Place Name City Bib No Age Overall Total Time Pace
1 Mark Teague Rutherfordton NC 347 12 23 24:21.1 7:51/M
2 Levi Vogel Rutherfordton NC 375 11 35 25:58.4 8:23/M
3 Ben Towery 363 11 43 27:02.9 8:43/M
4 Parker Emery Mooresboro NC 108 12 69 29:40.0 9:34/M
5 Caiden Little Ellenboro NC 207 11 81 30:51.0 9:57/M
6 Devin Mosley Forest City NC 254 11 90 31:40.1 10:13/M
7 Sesar Velasquez Forest City NC 368 11 108 33:13.5 10:43/M
8 Zalbador Velasquez Forest City NC 370 12 118 33:55.4 10:56/M
9 Matthew Butler Forest City NC 49 11 119 34:02.6 10:59/M
10 Damian Goodnight Forest City NC 130 12 156 37:19.3 12:02/M
11 Alejandro Arrendondo Forest City NC 6 11 157 37:19.6 12:02/M
12 Michael Neady Forest City NC 547 12 183 39:11.6 12:38/M
13 Kleber Hernandez Forest City NC 166 11 220 42:24.4 13:41/M
14 Lucas Bright Forest City NC 37 11 221 42:24.7 13:41/M
15 Jordan Waters Bostic NC 378 11 253 44:28.3 14:21/M
16 Ryan Moore Forest City NC 247 12 254 44:34.1 14:23/M
17 Joshua Harbison Forest City NC 154 11 264 46:11.1 14:54/M
18 Easton Zaffuto Rutherfordton NC 391 11 267 46:56.1 15:08/M
19 Braeden Crawford Forest City NC 77 11 270 46:57.7 15:09/M
20 Nathan Hopper Rutherfordton NC 181 11 274 47:05.8 15:11/M
21 Derek Crater Forest City NC 76 11 294 48:45.5 15:44/M
22 Zack Nix Forest City NC 258 11 295 48:47.3 15:44/M
23 Nick Burgess Ellenboro NC 47 11 304 49:23.1 15:56/M
24 Davis Melton 522 11 320 51:33.2 16:38/M
25 Otto Waters Forest City NC 563 11 353 54:49.6 17:41/M
26 Shawn Ridings Forest City NC 296 11 378 58:22.7 18:50/M
Top

Female 13 to 14

Place Name City Bib No Age Overall Total Time Pace
1 Faith Vogel Rutherfordton NC 374 14 64 29:06.7 9:23/M
2 Victoria Faulkner Forest City NC 115 13 141 36:05.1 11:38/M
3 Ceaira Shelton Forest City NC 310 14 252 44:23.4 14:19/M
4 Riley Mensch Rutherfordton NC 512 13 291 48:40.8 15:42/M
5 Brynna Glover Forest City NC 125 13 385 59:07.6 19:04/M
Top

Male 13 to 14

Place Name City Bib No Age Overall Total Time Pace
1 Christopher Upton Rutherfordton NC 365 13 8 21:07.7 6:49/M
2 Alston Worthy Forest City NC 388 14 28 25:01.6 8:04/M
3 Hunter Hendricks Ellenboro NC 162 13 57 28:36.9 9:14/M
4 Kaleb Crowe Forest City NC 80 13 70 29:49.2 9:37/M
Top

Female 15 to 19

Place Name City Bib No Age Overall Total Time Pace
1 Sydney Carpenter Forest City NC 62 16 48 27:57.9 9:01/M
2 Jordan Gray Forest City NC 571 17 68 29:24.5 9:29/M
3 Maia Teague Rutherfordton NC 346 15 73 30:02.7 9:41/M
4 Kristen McBrayer Forest City NC 394 15 74 30:06.1 9:43/M
5 Abby Smith Bostic NC 325 17 132 35:09.8 11:20/M
6 Blakely Robbins Forest City NC 298 17 145 36:11.9 11:40/M
7 Lauren Millette Ellenboro NC 396 17 191 39:52.3 12:52/M
8 Chelsea McEntire 226 16 307 49:54.6 16:06/M
9 Taylor Alton Rutherfordton NC 2 16 311 50:20.6 16:14/M
10 Courtney Poteat Rutherfordton NC 286 17 312 50:56.3 16:26/M
11 Danielle Ensley Rutherfordton NC 110 17 314 50:57.3 16:26/M
Top

Male 15 to 19

Place Name City Bib No Age Overall Total Time Pace
1 Evan Revis Rutherfordton NC 294 16 4 20:32.5 6:37/M
2 Sammy Peticos Ellenboro NC 556 18 5 20:36.5 6:39/M
3 Tyler Champion Forest City NC 542 17 9 21:27.5 6:55/M
4 Edgar Fabian Forest City NC 575 18 12 22:09.5 7:09/M
5 Preston Walker Forest City NC 507 17 16 23:18.0 7:31/M
6 Tremaine Stewart Forest City NC 336 17 17 23:20.7 7:32/M
7 Avery Champion Forest City NC 541 15 20 23:39.8 7:38/M
8 Sully Carpenter Forest City NC 61 19 22 23:58.8 7:44/M
9 Brett Towery 364 15 27 24:55.5 8:02/M
10 Sammy Beheler Forest City NC 21 15 42 26:52.3 8:40/M
11 Zeke Wilkerson Bostic NC 551 15 72 29:53.6 9:38/M
12 Kendrick MacOpson Forest City NC 537 16 111 33:30.6 10:48/M
13 Emmanuel Pimentel Forest City NC 281 18 150 36:29.0 11:46/M
14 Stanley Wilkins Forest City NC 524 15 152 36:32.9 11:47/M
15 Christopher Piercy Forest City NC 280 15 259 45:16.8 14:36/M
16 Preston James Ellenboro NC 397 18 272 46:59.2 15:09/M
Top

Female 20 to 24

Place Name City Bib No Age Overall Total Time Pace
1 Kaylee Keever Rutherfordton NC 199 22 44 27:04.3 8:44/M
2 Kelsey Church 70 23 366 56:24.3 18:12/M
Top

Female 25 to 29

Place Name City Bib No Age Overall Total Time Pace
1 Hannah Summerlin Forest City NC 341 25 84 30:58.6 9:59/M
2 Kasey Eskridge Moore SC 113 28 88 31:20.0 10:06/M
3 Lacey Deaton Bostic NC 87 26 121 34:16.4 11:03/M
4 Chelsea Lovelace Rutherfordton NC 212 29 129 34:50.5 11:14/M
5 Amanda McBrayer Bostic NC 501 28 154 36:55.4 11:55/M
6 Porscha Elton Lake Lure NC 508 25 159 37:23.5 12:04/M
7 Ashley Thomas Forest City NC 351 29 165 37:52.3 12:13/M
8 Lauren Beard Forest City NC 18 27 167 38:03.6 12:16/M
9 Katherine Horton Forest City NC 182 25 177 38:39.4 12:28/M
10 Eyrn Harrill 156 28 185 39:32.6 12:45/M
11 Roxanne Loving Shelby NC 216 28 203 40:49.3 13:10/M
12 Rebecca Tuttle Rutherfordton NC 546 29 236 43:30.0 14:02/M
13 Hayley Dobbins Chesnee SC 94 27 277 47:36.3 15:21/M
14 Jamie McGinnis Ellenboro NC 230 26 345 54:00.6 17:25/M
15 Christine Hensley Ellenboro NC 165 28 362 56:08.7 18:06/M
16 Breanne Church Mooresboro NC 69 28 363 56:12.7 18:08/M
17 Courtney Atkins Forest City NC 10 25 379 58:24.4 18:50/M
18 Casey Ponce Mooresboro NC 566 29 383 58:28.3 18:52/M
Top

Male 25 to 29

Place Name City Bib No Age Overall Total Time Pace
1 Gregory Stearns Rutherfordton NC 335 29 6 20:43.5 6:41/M
2 Curtis Beason Shelby NC 19 28 10 21:32.8 6:57/M
3 Nicholas Elton Lake Lure NC 509 28 21 23:54.8 7:43/M
4 Tyler Deaton Bostic NC 88 27 30 25:26.6 8:12/M
5 Deshea Briscoe Forest City NC 38 28 46 27:19.4 8:49/M
6 Kc Rollins Forest City NC 576 28 65 29:14.0 9:26/M
7 William Mott Forest City NC 548 25 181 39:10.1 12:38/M
8 Brandon Loving Shelby NC 214 27 204 40:49.4 13:10/M
9 Ethan McGinnis Ellenboro NC 229 26 308 49:54.9 16:06/M
Top

Female 30 to 34

Place Name City Bib No Age Overall Total Time Pace
1 Casey Sumner Spartanburg SC 342 34 18 23:21.0 7:32/M
2 Jennifer Coffey Forest City NC 515 32 41 26:46.0 8:38/M
3 Ashley Greene Ellenboro NC 136 31 130 34:50.6 11:14/M
4 Kristen Brown Bostic NC 40 34 172 38:28.7 12:25/M
5 Gina Greene Ellenboro NC 138 34 198 40:34.1 13:05/M
6 Crystal Bradshaw Mooresboro NC 565 30 209 41:24.7 13:21/M
7 Bobbi Hodge Ellenboro NC 399 30 213 41:45.4 13:28/M
8 Allison Montcastle 561 34 237 43:31.3 14:02/M
9 Janet Champion Forest City NC 68 32 246 44:07.6 14:14/M
10 Heather Phillips Ellenboro NC 275 34 247 44:08.4 14:14/M
11 Elizabeth Withrow Ellenboro NC 385 32 309 49:56.4 16:06/M
12 Tara Palmer 267 32 322 51:42.2 16:41/M
13 Brandy Fox Forest City NC 120 31 372 56:50.6 18:20/M
14 Sheli Jenkins Forest City NC 193 32 380 58:25.2 18:51/M
15 Caitlin Carpenter Rutherfordton NC 58 34 406 1:01:46.1 19:55/M
Top

Male 30 to 34

Place Name City Bib No Age Overall Total Time Pace
1 Ryan Hodge Ellenboro NC 400 32 36 26:05.9 8:25/M
2 Charlie Greene Ellenboro NC 137 33 199 40:35.3 13:05/M
3 Sam Dover Moore SC 97 33 340 53:51.8 17:22/M
Top

Female 35 to 39

Place Name City Bib No Age Overall Total Time Pace
1 Casey Peeler Shelby NC 273 35 37 26:08.4 8:26/M
2 Renee Howard Union Mills NC 560 36 39 26:27.8 8:32/M
3 Dana Bradley Rutherfordton NC 31 36 102 32:51.1 10:36/M
4 Sarah Tisdale Union Mills NC 359 38 120 34:10.7 11:01/M
5 Jessica Matthews Union Mills NC 222 39 136 35:45.2 11:32/M
6 Jenny Faulkner Forest City NC 114 35 140 36:03.1 11:38/M
7 Michelle Coldren Forest City NC 538 38 184 39:16.5 12:40/M
8 Stephanie Brooks Forest City NC 564 38 190 39:49.4 12:51/M
9 Leigh Harris Ellenboro NC 158 36 192 39:57.8 12:53/M
10 Melissa Breeden Forest City NC 34 38 200 40:41.8 13:07/M
11 Andeena Torvinen Rutherfordton NC 527 37 207 41:10.9 13:17/M
12 Alice McCluney 558 38 214 41:46.5 13:28/M
13 Elizabeth Gregory Roebuck SC 141 36 235 43:27.1 14:01/M
14 Hope Hill Forest City NC 173 38 245 44:05.1 14:13/M
15 Heather Grissom Rutherfordton NC 143 39 249 44:10.0 14:15/M
16 Shannon Sims Forest City NC 320 36 256 44:53.0 14:29/M
17 Amy Emery Mooresboro NC 105 37 319 51:31.6 16:37/M
18 Shanna Hauss Bostic NC 532 37 335 53:21.5 17:13/M
19 Jennifer Elliott Forest City NC 102 38 342 53:56.0 17:24/M
20 Carrie Wood Ellenboro NC 386 39 351 54:22.3 17:32/M
21 Natalie Brown Rutherfordton NC 41 37 365 56:17.0 18:09/M
22 Lindsey Melton 518 35 368 56:31.0 18:14/M
23 Yalanda Mosley Henrietta NC 536 39 376 57:25.8 18:31/M
24 Kerri Keever Rutherfordton NC 200 36 390 59:58.2 19:21/M
25 Lesley Suttle Forest City NC 343 38 397 1:00:43.1 19:35/M
26 Virginia Morrow Forest City NC 543 36 399 1:00:48.6 19:37/M
27 Tara Mauney Ellenboro NC 224 36 414 1:03:22.2 20:26/M
28 Kelly Sisk Rutherfordton NC 322 39 417 1:04:11.1 20:42/M
Top

Male 35 to 39

Place Name City Bib No Age Overall Total Time Pace
1 Dave Schoenmann Chesnee SC 568 37 7 20:46.3 6:42/M
2 Matt Emery Mooresboro NC 107 35 52 28:08.6 9:05/M
3 Keith Silver Rutherfordton NC 316 39 75 30:07.5 9:43/M
4 Brian Gooch Forest City NC 128 36 173 38:29.4 12:25/M
5 Russ Williams Forest City NC 533 35 188 39:42.3 12:48/M
6 Leslie Blankenship 25 37 201 40:42.6 13:08/M
7 David Thomas Bristol TN 352 36 302 49:21.3 15:55/M
8 Chris Sims Forest City NC 514 36 305 49:31.8 15:58/M
9 Alissia Wilkins Forest City NC 523 38 347 54:02.5 17:26/M
Top

Female 40 to 44

Place Name City Bib No Age Overall Total Time Pace
1 Tiana Teague Rutherfordton NC 349 41 66 29:18.2 9:27/M
2 Leah Robbins Forest City NC 299 43 67 29:23.7 9:29/M
3 Buffy Fountain Rutherfordton NC 559 44 105 33:05.6 10:40/M
4 Mickey Moore Bostic NC 246 42 153 36:48.9 11:52/M
5 Fran Fowler 118 41 168 38:07.5 12:18/M
6 Jennifer Owen Chesnee SC 263 44 182 39:10.8 12:38/M
7 Jennifer Ruppe Forest City NC 305 41 186 39:36.8 12:46/M
8 Gina Harrill Forest City NC 157 43 251 44:17.3 14:17/M
9 Julie Fincher Forest City NC 525 40 300 49:14.3 15:53/M
10 Lori McEntire Rutherfordton NC 228 42 355 55:19.3 17:51/M
11 Lisa Bradley Ellenboro NC 32 41 360 56:02.3 18:05/M
12 Jennifer McBrayer Forest City NC 393 44 377 58:03.5 18:44/M
Top

Male 40 to 44

Place Name City Bib No Age Overall Total Time Pace
1 Chris Francis Rutherfordton NC 544 42 45 27:17.0 8:48/M
2 Brad Wilkerson Forest City NC 552 43 87 31:17.6 10:05/M
3 Stephen Walker Forest City NC 506 42 96 32:08.1 10:22/M
4 Nick Elliott Forest City NC 104 42 97 32:18.1 10:25/M
5 Todd Harris Forest City NC 554 43 107 33:06.5 10:41/M
6 Shane Dotson Rutherfordton NC 96 40 175 38:36.4 12:27/M
7 Thad Harrill Forest City NC 569 40 242 44:02.8 14:12/M
8 Rodney Queen Ellenboro NC 292 41 243 44:03.8 14:13/M
9 Brian Sisk Rutherfordton NC 321 43 418 1:04:12.2 20:43/M
Top

Female 45 to 49

Place Name City Bib No Age Overall Total Time Pace
1 Roxanne Stiles Shelby NC 337 45 93 31:49.6 10:16/M
2 Leigh Owens Rutherfordton NC 265 49 122 34:18.2 11:04/M
3 Rhonda Hollifield Bostic NC 562 46 158 37:20.8 12:03/M
4 Heidi Odom Rutherfordton NC 504 47 179 38:53.1 12:33/M
5 Shirley Faini Forest City NC 503 49 189 39:48.8 12:50/M
6 Lori S Price Columbus NC 289 47 196 40:21.5 13:01/M
7 Nicole Hamilton Rutherfordton NC 150 47 216 42:00.2 13:33/M
8 Audrey Peticos Ellenboro NC 579 49 231 43:18.8 13:58/M
9 Sheila Shipp Rutherfordton NC 315 47 238 43:38.4 14:05/M
10 Debbie Stowe 526 47 260 45:23.6 14:38/M
11 Ida Buchanan Forest City NC 44 47 284 48:02.7 15:30/M
12 Jill Price Forest City NC 288 49 349 54:10.0 17:28/M
13 Danielle Verepie Rutherfordton NC 371 48 370 56:49.1 18:20/M
14 Kim Toney Ellenboro NC 361 47 396 1:00:40.8 19:34/M
15 Tammie Ash Shelby NC 9 47 412 1:03:05.8 20:21/M
Top

Male 45 to 49

Place Name City Bib No Age Overall Total Time Pace
1 David Butler Forest City NC 48 47 34 25:50.9 8:20/M
2 Jerry Sanders Bessemer City NC 306 49 50 28:06.0 9:04/M
3 Tim Torvinen Forest City NC 362 45 53 28:09.1 9:05/M
4 Ryan Sherburne Forest City NC 314 45 63 29:04.7 9:23/M
5 Keith Ezell 520 47 77 30:13.1 9:45/M
6 Dan Vogel Rutherfordton NC 373 46 95 32:02.8 10:20/M
7 Kirk Wilkerson Bostic NC 550 48 110 33:29.0 10:48/M
8 Mcentire Gary Rutherfordton NC 517 47 117 33:52.7 10:55/M
9 Daniel Worthy Mooresboro NC 580 45 144 36:09.9 11:40/M
10 Mark Gosnell Rutherfordton NC 131 46 170 38:10.6 12:19/M
11 Charile Freeman 122 49 265 46:27.0 14:59/M
12 Charlie Bradley Ellenboro NC 30 45 316 51:11.3 16:31/M
13 Jason Byrd 53 46 324 52:14.9 16:51/M
14 Russ Bennett Forest City NC 24 45 327 52:40.1 16:59/M
15 Earrick Parker Forest City NC 270 45 334 53:19.0 17:12/M
Top

Female 50 to 54

Place Name City Bib No Age Overall Total Time Pace
1 Denise Strickland Ellenboro NC 338 53 71 29:52.5 9:38/M
2 Sharon Jacob Rutherfordton NC 505 50 101 32:41.4 10:33/M
3 Jan Deviney Casar NC 92 50 127 34:27.7 11:07/M
4 Robin Smith Bostic NC 333 54 133 35:10.2 11:21/M
5 Susan Simpson Kings Mountain NC 318 51 139 36:02.9 11:37/M
6 Kristi Grishaw Rutherfordton NC 142 54 180 38:53.3 12:33/M
7 Kelly Crawford Forest City NC 79 50 195 40:19.6 13:00/M
8 Lisa Morrow 549 51 208 41:23.9 13:21/M
9 Kara Lail Ellenboro NC 202 52 228 42:58.9 13:52/M
10 Jo Oliver Rutherfordton NC 261 51 230 43:10.2 13:55/M
11 Star Coffey Forest City NC 71 54 248 44:09.0 14:15/M
12 Robin Robertson Bostic NC 302 53 261 45:31.1 14:41/M
13 Kim Deaver Rutherfordton NC 89 52 318 51:28.7 16:36/M
14 Katrina Shambaugh Columbus NC 309 52 330 52:54.8 17:04/M
Top

Male 50 to 54

Place Name City Bib No Age Overall Total Time Pace
1 Barry Hill Bostic NC 169 50 29 25:10.4 8:07/M
2 Chris Eason Gastonia NC 516 54 32 25:34.9 8:15/M
3 Keith Atkins Forest City NC 11 54 80 30:41.3 9:54/M
4 Joe Buchanan Forest City NC 45 52 89 31:23.8 10:07/M
5 Roscoe Conn 13 54 257 45:12.1 14:35/M
Top

Female 55 to 59

Place Name City Bib No Age Overall Total Time Pace
1 Denise Hill Bostic NC 171 55 148 36:19.8 11:43/M
2 Lisa Curtis Forest City NC 83 55 217 42:12.9 13:37/M
3 Kelly Carpenter Ellenboro NC 59 59 227 42:58.8 13:52/M
4 Bettina Conn Forest City NC 73 56 258 45:13.1 14:35/M
5 Becky McKelvey Rutherfordton NC 233 55 282 47:44.7 15:24/M
6 Cynthia Jones 196 56 323 51:45.5 16:42/M
7 Donna Ledford Mooresboro NC 205 55 348 54:09.7 17:28/M
8 Debbie Brewer Rutherfordton NC 36 59 358 55:36.6 17:56/M
Top

Male 55 to 59

Place Name City Bib No Age Overall Total Time Pace
1 Larry Curtis Forest City NC 82 56 26 24:42.7 7:58/M
2 David Bridges Shelby NC 578 57 31 25:28.1 8:13/M
3 William Brewer Rutherfordton NC 540 58 357 55:36.4 17:56/M
Top

Female 60 to 64

Place Name City Bib No Age Overall Total Time Pace
1 Jill Jennette Tryon NC 194 60 178 38:43.1 12:29/M
2 Kim Morris Tryon NC 250 62 283 47:53.6 15:27/M
3 Sara Mauney Ellenboro NC 223 64 339 53:44.0 17:20/M
4 Ann Smawley Rutherfordton NC 324 63 364 56:16.7 18:09/M
5 Charlotte Baynard Forest City NC 16 60 407 1:02:00.5 20:00/M
Top

Male 60 to 64

Place Name City Bib No Age Overall Total Time Pace
1 Bruce Putnam Shelby NC 290 64 76 30:07.9 9:43/M
2 Joey Strickland Ellenboro NC 339 60 112 33:33.4 10:49/M
Top

Male 65 to 69

Place Name City Bib No Age Overall Total Time Pace
1 Sandy Carlton Shelby NC 535 65 59 28:56.6 9:20/M
2 Gary Early Ellenboro NC 99 66 61 29:02.4 9:22/M
Top

Male 70 to 74

Place Name City Bib No Age Overall Total Time Pace
1 Jim Owens Kings Mountain NC 264 71 49 28:01.1 9:02/M
Top

Male 75 and Over

Place Name City Bib No Age Overall Total Time Pace
1 Laurence Penrose Bostic NC 502 75 60 29:00.1 9:21/M